createdAt,value
2022-07-30T00:01:48.113Z,44.53
2022-07-30T00:04:17.556Z,44.99
2022-07-30T00:06:46.977Z,45.31
2022-07-30T00:09:16.437Z,44.74
2022-07-30T00:11:45.880Z,45.35
2022-07-30T00:14:15.312Z,45.19
2022-07-30T00:16:44.869Z,45.93
2022-07-30T00:19:16.966Z,45.77
2022-07-30T00:21:47.952Z,45.53
2022-07-30T00:24:17.407Z,46.38
2022-07-30T00:26:46.832Z,46.63
2022-07-30T00:29:16.294Z,47.48
2022-07-30T00:31:45.757Z,47.85
2022-07-30T00:34:17.784Z,48.19
2022-07-30T00:36:47.211Z,48.48
2022-07-30T00:39:16.685Z,47.84
2022-07-30T00:41:59.329Z,47.63
2022-07-30T00:44:28.979Z,48.16
2022-07-30T00:46:58.857Z,48.13
2022-07-30T00:49:31.294Z,48.83
2022-07-30T00:52:00.732Z,48.24
2022-07-30T00:54:30.187Z,48.47
2022-07-30T00:56:59.857Z,48.63
2022-07-30T00:59:31.655Z,48.59
2022-07-30T01:02:01.897Z,49.21
2022-07-30T01:04:34.029Z,48.92
2022-07-30T01:07:03.561Z,48.93
2022-07-30T01:09:33.327Z,49.30
2022-07-30T01:12:02.759Z,48.84
2022-07-30T01:14:32.386Z,48.96
2022-07-30T01:17:02.248Z,48.52
2022-07-30T01:19:52.626Z,48.24
2022-07-30T01:22:32.602Z,49.17
2022-07-30T01:25:08.987Z,48.74
2022-07-30T01:27:43.023Z,48.75
2022-07-30T01:30:13.349Z,47.96
2022-07-30T01:32:45.176Z,47.04
2022-07-30T01:35:14.829Z,46.62
2022-07-30T01:37:44.439Z,46.00
2022-07-30T01:40:14.969Z,45.61
2022-07-30T01:42:47.129Z,45.56
2022-07-30T01:45:16.619Z,45.48
2022-07-30T01:47:46.049Z,45.42
2022-07-30T01:50:16.409Z,45.59
2022-07-30T01:52:49.133Z,45.11
2022-07-30T01:55:20.023Z,45.48
2022-07-30T01:57:52.117Z,45.41
2022-07-30T02:00:21.629Z,45.46
2022-07-30T02:02:51.116Z,45.31
2022-07-30T02:05:20.562Z,45.48
2022-07-30T02:07:54.089Z,45.06
2022-07-30T02:10:26.844Z,45.28
2022-07-30T02:13:00.783Z,45.41
2022-07-30T02:15:32.787Z,45.11
2022-07-30T02:18:04.056Z,44.70
2022-07-30T02:20:35.832Z,44.74
2022-07-30T02:23:09.701Z,45.05
2022-07-30T02:25:39.198Z,45.48
2022-07-30T02:28:12.545Z,46.49
2022-07-30T02:30:44.926Z,47.24
2022-07-30T02:33:14.371Z,47.79
2022-07-30T02:35:43.961Z,47.93
2022-07-30T02:38:13.382Z,47.82
2022-07-30T02:40:43.385Z,47.83
2022-07-30T02:43:16.963Z,48.40
2022-07-30T02:45:46.737Z,48.59
2022-07-30T02:48:34.971Z,49.16
2022-07-30T02:51:04.933Z,49.54
2022-07-30T02:53:34.390Z,49.92
2022-07-30T02:56:03.840Z,50.08
2022-07-30T02:58:35.873Z,50.55
2022-07-30T03:01:05.373Z,50.60
2022-07-30T03:03:34.965Z,50.85
2022-07-30T03:06:05.353Z,50.59
2022-07-30T03:08:34.861Z,50.87
2022-07-30T03:11:04.295Z,51.13
2022-07-30T03:13:36.478Z,51.11
2022-07-30T03:16:06.420Z,51.58
2022-07-30T03:18:37.131Z,51.16
2022-07-30T03:21:06.670Z,51.62
2022-07-30T03:23:37.674Z,51.56
2022-07-30T03:26:08.589Z,51.96
2022-07-30T03:28:41.798Z,51.76
2022-07-30T03:31:11.802Z,52.28
2022-07-30T03:33:41.446Z,52.57
2022-07-30T03:36:11.349Z,52.84
2022-07-30T03:38:40.906Z,52.76
2022-07-30T03:41:10.469Z,53.13
2022-07-30T03:43:42.931Z,53.25
2022-07-30T03:46:12.606Z,53.40
2022-07-30T03:48:42.134Z,53.99
2022-07-30T03:51:12.764Z,54.13
2022-07-30T03:53:42.854Z,54.13
2022-07-30T03:56:12.319Z,53.92
2022-07-30T03:58:44.300Z,54.12
2022-07-30T04:01:13.738Z,54.31
2022-07-30T04:03:43.203Z,54.37
2022-07-30T04:06:12.688Z,54.53
2022-07-30T04:08:42.136Z,54.90
2022-07-30T04:11:11.591Z,54.62
2022-07-30T04:13:41.020Z,54.99
2022-07-30T04:16:39.549Z,54.91
2022-07-30T04:19:04.835Z,55.06
2022-07-30T04:21:34.299Z,55.02
2022-07-30T04:24:05.589Z,55.48
2022-07-30T04:26:36.837Z,55.29
2022-07-30T04:29:07.194Z,55.15
2022-07-30T04:31:40.851Z,55.42
2022-07-30T04:34:10.964Z,55.61
2022-07-30T04:36:40.402Z,56.07
2022-07-30T04:39:10.082Z,55.63
2022-07-30T04:41:49.515Z,55.72
2022-07-30T04:44:20.321Z,55.82
2022-07-30T04:46:52.417Z,55.80
2022-07-30T04:49:21.997Z,55.93
2022-07-30T04:51:51.561Z,55.36
2022-07-30T04:54:21.013Z,55.50
2022-07-30T04:56:53.740Z,55.30
2022-07-30T04:59:24.282Z,54.96
2022-07-30T05:01:56.415Z,55.07
2022-07-30T05:04:25.998Z,54.68
2022-07-30T05:06:55.488Z,54.46
2022-07-30T05:09:25.063Z,54.53
2022-07-30T05:11:54.873Z,54.04
2022-07-30T05:14:24.402Z,53.71
2022-07-30T05:16:56.577Z,53.82
2022-07-30T05:19:26.236Z,54.01
2022-07-30T05:21:56.207Z,54.32
2022-07-30T05:24:25.690Z,54.24
2022-07-30T05:26:55.202Z,53.45
2022-07-30T05:29:24.632Z,53.08
2022-07-30T05:31:56.681Z,52.89
2022-07-30T05:34:32.177Z,52.57
2022-07-30T05:37:01.979Z,53.20
2022-07-30T05:39:31.777Z,52.96
2022-07-30T05:42:02.059Z,52.26
2022-07-30T05:44:31.512Z,51.84
2022-07-30T05:47:03.714Z,51.95
2022-07-30T05:49:33.277Z,51.33
2022-07-30T05:52:02.721Z,51.63
2022-07-30T05:54:35.710Z,51.57
2022-07-30T05:57:05.525Z,51.61
2022-07-30T05:59:35.175Z,51.14
2022-07-30T06:02:07.625Z,50.08
2022-07-30T06:04:37.603Z,50.54
2022-07-30T06:07:15.779Z,50.25
2022-07-30T06:09:45.384Z,49.91
2022-07-30T06:12:15.042Z,49.44
2022-07-30T06:14:44.536Z,49.77
2022-07-30T06:17:16.556Z,48.94
2022-07-30T06:19:46.042Z,48.62
2022-07-30T06:22:15.496Z,46.93
2022-07-30T06:24:44.907Z,47.36
2022-07-30T06:27:14.342Z,46.27
2022-07-30T06:29:43.891Z,46.73
2022-07-30T06:32:15.899Z,44.70
2022-07-30T06:34:45.321Z,44.08
2022-07-30T06:37:14.778Z,42.89
2022-07-30T06:39:57.585Z,42.46
2022-07-30T06:42:29.015Z,41.89
2022-07-30T06:44:58.459Z,42.36
2022-07-30T06:47:31.420Z,41.36
2022-07-30T06:50:00.872Z,41.41
2022-07-30T06:52:30.303Z,41.07
2022-07-30T06:54:59.725Z,41.06
2022-07-30T06:57:29.173Z,40.41
2022-07-30T07:00:00.069Z,40.63
2022-07-30T07:02:32.101Z,40.51
2022-07-30T07:05:01.926Z,40.12
2022-07-30T07:07:41.214Z,40.08
2022-07-30T07:10:11.537Z,39.63
2022-07-30T07:12:41.600Z,39.16
2022-07-30T07:15:12.464Z,38.40
2022-07-30T07:17:44.557Z,38.32
2022-07-30T07:20:14.582Z,37.96
2022-07-30T07:22:44.013Z,38.03
2022-07-30T07:25:14.587Z,37.86
2022-07-30T07:27:44.128Z,38.34
2022-07-30T07:30:33.561Z,38.72
2022-07-30T07:33:05.610Z,39.19
2022-07-30T07:35:48.440Z,39.30
2022-07-30T07:38:18.870Z,39.48
2022-07-30T07:40:48.435Z,39.63
2022-07-30T07:43:18.167Z,38.94
2022-07-30T07:45:47.942Z,39.26
2022-07-30T07:48:20.468Z,39.25
2022-07-30T07:50:49.901Z,39.16
2022-07-30T07:53:19.352Z,39.17
2022-07-30T07:55:48.773Z,38.67
2022-07-30T07:58:26.269Z,38.50
2022-07-30T08:00:56.110Z,38.09
2022-07-30T08:03:28.499Z,37.38
2022-07-30T08:06:04.743Z,37.41
2022-07-30T08:08:37.115Z,37.92
2022-07-30T08:11:07.897Z,38.52
2022-07-30T08:13:49.243Z,39.38
2022-07-30T08:16:22.325Z,39.03
2022-07-30T08:18:54.413Z,38.21
2022-07-30T08:21:23.850Z,37.93
2022-07-30T08:23:53.325Z,38.79
2022-07-30T08:26:22.808Z,37.70
2022-07-30T08:28:54.377Z,38.23
2022-07-30T08:31:24.127Z,36.06
2022-07-30T08:33:56.153Z,36.34
2022-07-30T08:36:26.054Z,35.81
2022-07-30T08:38:55.607Z,35.30
2022-07-30T08:41:25.049Z,33.96
2022-07-30T08:43:54.516Z,33.18
2022-07-30T08:46:25.294Z,32.22
2022-07-30T08:48:57.161Z,32.21
2022-07-30T08:51:26.741Z,31.58
2022-07-30T08:53:56.436Z,32.56
2022-07-30T08:56:25.949Z,33.34
2022-07-30T08:58:55.413Z,30.91
2022-07-30T09:01:24.995Z,30.53
2022-07-30T09:03:57.050Z,30.92
2022-07-30T09:06:26.655Z,30.84
2022-07-30T09:08:56.156Z,31.47
2022-07-30T09:11:25.572Z,30.08
2022-07-30T09:13:55.040Z,26.85
2022-07-30T09:16:25.097Z,27.58
2022-07-30T09:18:57.163Z,25.32
2022-07-30T09:21:28.440Z,22.54
2022-07-30T09:23:59.067Z,21.09
2022-07-30T09:26:29.210Z,22.03
2022-07-30T09:28:58.793Z,19.47
2022-07-30T09:34:29.452Z,15.80
2022-07-30T09:36:59.480Z,14.36
2022-07-30T09:39:32.937Z,14.09
2022-07-30T09:42:02.867Z,16.00
2022-07-30T09:44:32.998Z,16.38
2022-07-30T09:47:03.055Z,14.31
2022-07-30T09:49:35.392Z,14.77
2022-07-30T09:52:04.817Z,15.73
2022-07-30T09:54:51.432Z,14.09
2022-07-30T09:57:25.656Z,12.38
2022-07-30T09:59:57.414Z,11.32
2022-07-30T10:02:33.728Z,11.21
2022-07-30T10:05:16.387Z,10.65
2022-07-30T10:07:53.070Z,9.69
2022-07-30T10:10:25.251Z,9.20
2022-07-30T10:12:56.746Z,8.96
2022-07-30T10:15:27.660Z,7.61
2022-07-30T10:17:57.155Z,7.28
2022-07-30T10:20:29.393Z,6.90
2022-07-30T10:22:59.365Z,6.47
2022-07-30T10:25:29.242Z,6.55
2022-07-30T10:27:58.898Z,6.30
2022-07-30T10:30:32.327Z,6.51
2022-07-30T10:33:02.879Z,6.62
2022-07-30T10:35:38.381Z,6.85
2022-07-30T10:38:13.762Z,6.96
2022-07-30T10:40:46.070Z,7.07
2022-07-30T10:43:49.018Z,7.51
2022-07-30T10:46:22.994Z,7.92
2022-07-30T10:48:52.739Z,9.63
2022-07-30T10:51:25.428Z,10.71
2022-07-30T10:54:04.089Z,12.63
2022-07-30T10:56:33.545Z,14.60
2022-07-30T10:59:04.156Z,15.05
2022-07-30T11:02:06.892Z,15.87
2022-07-30T11:04:36.625Z,16.23
2022-07-30T11:07:33.479Z,16.62
2022-07-30T11:10:08.716Z,17.20
2022-07-30T11:12:54.467Z,17.62
2022-07-30T11:15:24.401Z,17.63
2022-07-30T11:18:01.616Z,18.53
2022-07-30T11:20:31.090Z,18.99
2022-07-30T11:23:14.491Z,19.77
2022-07-30T11:25:51.754Z,19.86
2022-07-30T11:28:49.378Z,19.55
2022-07-30T11:31:54.874Z,19.99
2022-07-30T11:34:30.658Z,18.91
2022-07-30T11:37:19.111Z,19.35
2022-07-30T11:40:13.477Z,20.41
2022-07-30T11:42:44.705Z,20.40
2022-07-30T11:45:30.920Z,21.47
2022-07-30T11:48:00.947Z,20.51
2022-07-30T11:50:32.093Z,20.29
2022-07-30T11:53:04.314Z,20.40
2022-07-30T11:55:37.334Z,20.59
2022-07-30T11:58:07.871Z,20.54
2022-07-30T12:00:37.743Z,20.33
2022-07-30T12:03:13.928Z,20.73
2022-07-30T12:05:43.594Z,20.76
2022-07-30T12:08:34.078Z,20.48
2022-07-30T12:11:05.928Z,20.12
2022-07-30T12:13:44.107Z,20.14
2022-07-30T12:16:16.604Z,20.31
2022-07-30T12:18:46.387Z,20.93
2022-07-30T12:21:16.323Z,21.18
2022-07-30T12:23:46.062Z,20.58
2022-07-30T12:26:26.721Z,19.94
2022-07-30T12:28:56.580Z,19.71
2022-07-30T12:31:26.031Z,20.14
2022-07-30T12:33:58.359Z,20.97
2022-07-30T12:36:30.935Z,20.96
2022-07-30T12:39:00.839Z,20.15
2022-07-30T12:41:46.218Z,20.45
2022-07-30T12:44:36.554Z,19.98
2022-07-30T12:47:06.705Z,20.13
2022-07-30T12:49:48.828Z,20.95
2022-07-30T12:52:27.919Z,20.22
2022-07-30T12:55:06.643Z,20.62
2022-07-30T12:58:05.474Z,20.66
2022-07-30T13:00:52.201Z,20.94
2022-07-30T13:03:26.179Z,21.05
2022-07-30T13:05:56.289Z,20.74
2022-07-30T13:08:56.000Z,20.75
2022-07-30T13:11:26.431Z,19.73
2022-07-30T13:13:58.190Z,19.40
2022-07-30T13:16:27.617Z,19.94
2022-07-30T13:18:57.036Z,19.82
2022-07-30T13:21:26.576Z,19.94
2022-07-30T13:23:56.005Z,20.34
2022-07-30T13:26:25.551Z,20.63
2022-07-30T13:28:57.610Z,20.84
2022-07-30T13:31:42.996Z,20.33
2022-07-30T13:34:12.769Z,20.39
2022-07-30T13:36:43.040Z,20.45
2022-07-30T13:39:12.610Z,20.70
2022-07-30T13:41:42.119Z,20.00
2022-07-30T13:44:11.693Z,19.29
2022-07-30T13:46:43.965Z,19.14
2022-07-30T13:49:13.468Z,19.64
2022-07-30T13:51:43.015Z,20.20
2022-07-30T13:54:13.971Z,19.99
2022-07-30T13:56:43.468Z,19.28
2022-07-30T13:59:12.904Z,19.69
2022-07-30T14:01:45.053Z,20.01
2022-07-30T14:04:14.592Z,20.58
2022-07-30T14:06:44.187Z,20.19
2022-07-30T14:09:13.620Z,20.09
2022-07-30T14:11:43.065Z,20.08
2022-07-30T14:14:13.007Z,19.96
2022-07-30T14:16:46.656Z,19.18
2022-07-30T14:19:23.139Z,19.73
2022-07-30T14:21:53.853Z,20.74
2022-07-30T14:24:23.352Z,20.17
2022-07-30T14:26:57.692Z,20.52
2022-07-30T14:29:28.785Z,19.38
2022-07-30T14:32:00.813Z,19.49
2022-07-30T14:34:30.253Z,19.36
2022-07-30T14:36:59.831Z,19.58
2022-07-30T14:39:30.020Z,19.63
2022-07-30T14:41:59.505Z,19.15
2022-07-30T14:44:28.949Z,19.29
2022-07-30T14:47:00.966Z,19.69
2022-07-30T14:49:30.736Z,19.35
2022-07-30T14:52:00.921Z,19.00
2022-07-30T14:54:31.363Z,19.17
2022-07-30T14:57:00.891Z,18.91
2022-07-30T14:59:30.632Z,18.76
2022-07-30T15:02:02.883Z,18.74
2022-07-30T15:04:32.460Z,18.79
2022-07-30T15:07:02.108Z,17.63
2022-07-30T15:09:31.552Z,18.73
2022-07-30T15:12:18.008Z,18.81
2022-07-30T15:14:50.405Z,19.70
2022-07-30T15:17:24.447Z,19.25
2022-07-30T15:19:53.889Z,19.45
2022-07-30T15:22:23.331Z,18.92
2022-07-30T15:24:52.786Z,19.20
2022-07-30T15:27:33.223Z,18.81
2022-07-30T15:30:03.301Z,18.91
2022-07-30T15:32:38.083Z,18.86
2022-07-30T15:35:13.429Z,18.88
2022-07-30T15:37:43.784Z,18.55
2022-07-30T15:40:13.504Z,18.66
2022-07-30T15:42:43.161Z,18.52
2022-07-30T15:45:17.775Z,17.92
2022-07-30T15:47:50.206Z,18.32
2022-07-30T15:50:19.895Z,18.12
2022-07-30T15:52:49.362Z,17.92
2022-07-30T15:55:19.204Z,17.68
2022-07-30T15:57:48.693Z,17.35
2022-07-30T16:00:18.416Z,17.17
2022-07-30T16:02:50.568Z,17.25
2022-07-30T16:05:20.014Z,17.20
2022-07-30T16:07:49.442Z,17.34
2022-07-30T16:10:18.911Z,17.46
2022-07-30T16:12:48.328Z,17.82
2022-07-30T16:15:17.744Z,17.94
2022-07-30T16:17:49.759Z,17.64
2022-07-30T16:20:19.169Z,17.77
2022-07-30T16:22:48.624Z,17.91
2022-07-30T16:25:18.075Z,17.47
2022-07-30T16:27:47.510Z,17.86
2022-07-30T16:30:16.940Z,17.99
2022-07-30T16:32:46.398Z,17.96
2022-07-30T16:35:18.496Z,18.37
2022-07-30T16:37:47.918Z,18.34
2022-07-30T16:40:17.385Z,18.11
2022-07-30T16:42:46.907Z,17.99
2022-07-30T16:45:17.604Z,18.34
2022-07-30T16:47:48.496Z,18.59
2022-07-30T16:50:20.520Z,19.31
2022-07-30T16:52:49.958Z,19.59
2022-07-30T16:55:19.486Z,19.10
2022-07-30T16:57:48.906Z,19.17
2022-07-30T17:00:18.883Z,19.37
2022-07-30T17:02:48.308Z,19.61
2022-07-30T17:05:20.458Z,20.35
2022-07-30T17:07:49.909Z,20.14
2022-07-30T17:10:25.491Z,20.10
2022-07-30T17:12:57.215Z,20.08
2022-07-30T17:15:31.929Z,20.32
2022-07-30T17:18:02.455Z,20.68
2022-07-30T17:20:34.528Z,20.97
2022-07-30T17:23:03.959Z,20.92
2022-07-30T17:25:33.464Z,20.78
2022-07-30T17:28:02.895Z,21.10
2022-07-30T17:30:32.429Z,21.66
2022-07-30T17:33:02.017Z,21.44
2022-07-30T17:35:34.280Z,21.48
2022-07-30T17:38:03.792Z,21.84
2022-07-30T17:40:33.348Z,22.09
2022-07-30T17:43:07.457Z,22.81
2022-07-30T17:45:37.816Z,22.53
2022-07-30T17:48:08.165Z,24.55
2022-07-30T17:50:40.188Z,23.16
2022-07-30T17:53:09.826Z,23.73
2022-07-30T17:55:39.274Z,24.20
2022-07-30T17:58:08.743Z,24.15
2022-07-30T18:00:38.205Z,23.53
2022-07-30T18:03:07.670Z,24.38
2022-07-30T18:05:39.775Z,24.50
2022-07-30T18:08:09.219Z,24.02
2022-07-30T18:10:38.671Z,24.10
2022-07-30T18:13:25.940Z,24.72
2022-07-30T18:15:56.744Z,24.82
2022-07-30T18:18:26.232Z,24.90
2022-07-30T18:20:58.243Z,25.19
2022-07-30T18:23:32.445Z,24.80
2022-07-30T18:26:04.363Z,24.52
2022-07-30T18:28:33.970Z,24.62
2022-07-30T18:31:03.418Z,25.19
2022-07-30T18:33:32.852Z,25.07
2022-07-30T18:36:05.026Z,24.41
2022-07-30T18:38:34.441Z,25.23
2022-07-30T18:41:04.000Z,25.09
2022-07-30T18:43:47.823Z,24.83
2022-07-30T18:46:18.004Z,25.57
2022-07-30T18:48:48.556Z,25.40
2022-07-30T18:51:25.068Z,26.00
2022-07-30T18:53:54.912Z,26.06
2022-07-30T18:56:24.357Z,28.07
2022-07-30T18:58:53.786Z,27.67
2022-07-30T19:01:24.289Z,27.04
2022-07-30T19:03:53.849Z,27.27
2022-07-30T19:06:25.941Z,28.40
2022-07-30T19:08:55.391Z,29.16
2022-07-30T19:11:24.867Z,27.63
2022-07-30T19:13:54.295Z,27.74
2022-07-30T19:16:24.052Z,27.68
2022-07-30T19:18:53.513Z,27.65
2022-07-30T19:21:25.628Z,28.03
2022-07-30T19:23:55.063Z,28.37
2022-07-30T19:26:24.623Z,29.41
2022-07-30T19:28:54.186Z,27.96
2022-07-30T19:31:23.631Z,27.90
2022-07-30T19:33:53.067Z,28.58
2022-07-30T19:36:25.220Z,29.33
2022-07-30T19:38:58.328Z,29.39
2022-07-30T19:41:27.925Z,28.94
2022-07-30T19:44:00.305Z,28.90
2022-07-30T19:46:29.746Z,28.99
2022-07-30T19:48:59.420Z,28.93
2022-07-30T19:52:09.767Z,28.66
2022-07-30T19:54:21.713Z,28.75
2022-07-30T19:56:51.242Z,28.33
2022-07-30T19:59:57.878Z,28.21
2022-07-30T20:02:10.585Z,28.24
2022-07-30T20:04:43.595Z,28.18
2022-07-30T20:07:15.897Z,28.26
2022-07-30T20:09:45.335Z,28.64
2022-07-30T20:12:18.075Z,29.25
2022-07-30T20:14:47.514Z,29.26
2022-07-30T20:17:18.465Z,29.73
2022-07-30T20:19:48.711Z,28.76
2022-07-30T20:22:20.782Z,28.96
2022-07-30T20:24:50.985Z,29.26
2022-07-30T20:27:35.702Z,29.40
2022-07-30T20:30:06.735Z,29.22
2022-07-30T20:32:36.548Z,29.35
2022-07-30T20:35:06.067Z,28.94
2022-07-30T20:37:40.212Z,29.10
2022-07-30T20:40:24.657Z,29.14
2022-07-30T20:42:56.351Z,29.01
2022-07-30T20:45:40.199Z,29.75
2022-07-30T20:48:17.365Z,29.46
2022-07-30T20:50:55.148Z,29.54
2022-07-30T20:53:33.693Z,29.74
2022-07-30T20:56:09.128Z,29.97
2022-07-30T20:58:40.180Z,29.99
2022-07-30T21:01:15.737Z,30.08
2022-07-30T21:03:47.694Z,30.27
2022-07-30T21:06:28.554Z,30.30
2022-07-30T21:09:24.118Z,30.59
2022-07-30T21:11:56.496Z,30.46
2022-07-30T21:14:25.992Z,30.89
2022-07-30T21:16:56.250Z,30.95
2022-07-30T21:19:25.810Z,31.04
2022-07-30T21:21:58.527Z,31.46
2022-07-30T21:24:30.540Z,31.50
2022-07-30T21:27:00.006Z,31.80
2022-07-30T21:29:30.181Z,31.93
2022-07-30T21:32:01.571Z,31.55
2022-07-30T21:34:40.296Z,31.80
2022-07-30T21:37:13.008Z,31.86
2022-07-30T21:39:47.608Z,32.55
2022-07-30T21:42:17.046Z,32.47
2022-07-30T21:44:55.589Z,32.69
2022-07-30T21:47:25.101Z,33.29
2022-07-30T21:49:55.545Z,32.97
2022-07-30T21:52:25.333Z,33.42
2022-07-30T21:54:57.396Z,33.29
2022-07-30T21:57:34.561Z,33.22
2022-07-30T22:00:06.071Z,33.82
2022-07-30T22:02:38.547Z,33.88
2022-07-30T22:05:38.831Z,33.69
2022-07-30T22:08:08.679Z,34.08
2022-07-30T22:10:42.637Z,33.57
2022-07-30T22:13:12.131Z,33.99
2022-07-30T22:15:42.584Z,34.01
2022-07-30T22:18:12.048Z,34.29
2022-07-30T22:20:41.685Z,33.85
2022-07-30T22:23:11.773Z,33.21
2022-07-30T22:25:45.005Z,33.36
2022-07-30T22:28:14.849Z,33.34
2022-07-30T22:30:46.192Z,33.37
2022-07-30T22:33:17.209Z,33.82
2022-07-30T22:35:49.797Z,33.13
2022-07-30T22:38:19.864Z,33.87
2022-07-30T22:40:51.965Z,33.87
2022-07-30T22:43:21.477Z,33.71
2022-07-30T22:45:51.085Z,34.44
2022-07-30T22:48:26.914Z,34.30
2022-07-30T22:50:58.834Z,33.97
2022-07-30T22:54:03.532Z,33.94
2022-07-30T22:56:24.016Z,34.56
2022-07-30T22:58:53.603Z,35.03
2022-07-30T23:01:23.520Z,35.52
2022-07-30T23:03:52.944Z,35.67
2022-07-30T23:06:23.368Z,35.84
2022-07-30T23:08:53.107Z,35.77
2022-07-30T23:11:25.156Z,35.99
2022-07-30T23:14:06.601Z,36.35
2022-07-30T23:16:36.031Z,36.35
2022-07-30T23:19:05.592Z,36.56
2022-07-30T23:21:35.144Z,36.98
2022-07-30T23:24:04.817Z,36.50
2022-07-30T23:26:36.823Z,36.80
2022-07-30T23:29:06.260Z,36.92
2022-07-30T23:31:42.903Z,37.09
2022-07-30T23:34:13.025Z,37.47
2022-07-30T23:36:42.592Z,37.78
2022-07-30T23:39:12.160Z,36.90
2022-07-30T23:41:44.198Z,36.41
2022-07-30T23:44:13.645Z,35.83
2022-07-30T23:46:43.102Z,35.64
2022-07-30T23:49:12.853Z,35.53
2022-07-30T23:51:42.292Z,34.96
2022-07-30T23:54:11.729Z,35.07
2022-07-30T23:56:44.544Z,34.97
2022-07-30T23:59:15.272Z,35.14
